sensor_id;sensor_type;location;lat;lon;timestamp;P1;durP1;ratioP1;P2;durP2;ratioP2
24337;SDS011;12457;50.832;4.346;2022-10-30T00:00:54;18.65;;;5.85;;
24337;SDS011;12457;50.832;4.346;2022-10-30T00:03:20;21.27;;;6.07;;
24337;SDS011;12457;50.832;4.346;2022-10-30T00:05:47;17.58;;;5.72;;
24337;SDS011;12457;50.832;4.346;2022-10-30T00:08:15;22.52;;;5.68;;
24337;SDS011;12457;50.832;4.346;2022-10-30T00:10:41;15.60;;;6.05;;
24337;SDS011;12457;50.832;4.346;2022-10-30T00:13:08;21.17;;;7.22;;
24337;SDS011;12457;50.832;4.346;2022-10-30T00:15:34;20.73;;;7.18;;
24337;SDS011;12457;50.832;4.346;2022-10-30T00:18:00;18.23;;;7.80;;
24337;SDS011;12457;50.832;4.346;2022-10-30T00:20:26;25.75;;;6.95;;
24337;SDS011;12457;50.832;4.346;2022-10-30T00:22:51;26.30;;;7.15;;
24337;SDS011;12457;50.832;4.346;2022-10-30T00:25:17;20.90;;;6.68;;
24337;SDS011;12457;50.832;4.346;2022-10-30T00:27:43;21.15;;;7.82;;
24337;SDS011;12457;50.832;4.346;2022-10-30T00:30:08;26.27;;;7.03;;
24337;SDS011;12457;50.832;4.346;2022-10-30T00:32:35;18.98;;;7.13;;
24337;SDS011;12457;50.832;4.346;2022-10-30T00:35:00;18.63;;;7.10;;
24337;SDS011;12457;50.832;4.346;2022-10-30T00:37:26;30.77;;;8.05;;
24337;SDS011;12457;50.832;4.346;2022-10-30T00:39:52;28.55;;;7.00;;
24337;SDS011;12457;50.832;4.346;2022-10-30T00:42:17;16.30;;;6.15;;
24337;SDS011;12457;50.832;4.346;2022-10-30T00:47:13;18.60;;;6.57;;
24337;SDS011;12457;50.832;4.346;2022-10-30T00:49:44;19.27;;;6.70;;
24337;SDS011;12457;50.832;4.346;2022-10-30T00:54:40;22.17;;;7.38;;
24337;SDS011;12457;50.832;4.346;2022-10-30T00:57:06;20.83;;;6.85;;
24337;SDS011;12457;50.832;4.346;2022-10-30T00:59:33;23.48;;;7.93;;
24337;SDS011;12457;50.832;4.346;2022-10-30T01:02:01;24.13;;;7.20;;
24337;SDS011;12457;50.832;4.346;2022-10-30T01:04:27;18.15;;;7.85;;
24337;SDS011;12457;50.832;4.346;2022-10-30T01:06:56;23.08;;;7.43;;
24337;SDS011;12457;50.832;4.346;2022-10-30T01:09:22;20.23;;;7.10;;
24337;SDS011;12457;50.832;4.346;2022-10-30T01:11:48;21.95;;;7.63;;
24337;SDS011;12457;50.832;4.346;2022-10-30T01:14:14;21.63;;;7.18;;
24337;SDS011;12457;50.832;4.346;2022-10-30T01:22:38;19.08;;;7.97;;
24337;SDS011;12457;50.832;4.346;2022-10-30T01:28:03;20.98;;;7.53;;
24337;SDS011;12457;50.832;4.346;2022-10-30T01:38:50;23.65;;;7.53;;
24337;SDS011;12457;50.832;4.346;2022-10-30T01:41:19;23.75;;;7.35;;
24337;SDS011;12457;50.832;4.346;2022-10-30T01:43:45;18.25;;;7.10;;
24337;SDS011;12457;50.832;4.346;2022-10-30T01:55:40;21.75;;;8.38;;
24337;SDS011;12457;50.832;4.346;2022-10-30T01:59:06;20.63;;;7.28;;
24337;SDS011;12457;50.832;4.346;2022-10-30T02:01:31;25.88;;;7.65;;
24337;SDS011;12457;50.832;4.346;2022-10-30T02:03:59;21.85;;;6.32;;
24337;SDS011;12457;50.832;4.346;2022-10-30T02:06:26;20.10;;;7.50;;
24337;SDS011;12457;50.832;4.346;2022-10-30T02:08:55;22.08;;;6.53;;
24337;SDS011;12457;50.832;4.346;2022-10-30T02:11:21;17.45;;;6.70;;
24337;SDS011;12457;50.832;4.346;2022-10-30T02:13:51;25.65;;;6.82;;
24337;SDS011;12457;50.832;4.346;2022-10-30T02:16:20;22.33;;;7.25;;
24337;SDS011;12457;50.832;4.346;2022-10-30T02:18:47;19.00;;;6.75;;
24337;SDS011;12457;50.832;4.346;2022-10-30T02:21:12;24.75;;;6.75;;
24337;SDS011;12457;50.832;4.346;2022-10-30T02:23:38;22.88;;;6.25;;
24337;SDS011;12457;50.832;4.346;2022-10-30T02:26:04;24.73;;;6.90;;
24337;SDS011;12457;50.832;4.346;2022-10-30T02:28:30;23.17;;;7.28;;
24337;SDS011;12457;50.832;4.346;2022-10-30T02:30:55;19.05;;;7.05;;
24337;SDS011;12457;50.832;4.346;2022-10-30T02:33:21;26.90;;;7.40;;
24337;SDS011;12457;50.832;4.346;2022-10-30T02:35:48;18.10;;;6.43;;
24337;SDS011;12457;50.832;4.346;2022-10-30T02:38:14;16.63;;;6.70;;
24337;SDS011;12457;50.832;4.346;2022-10-30T02:40:40;22.25;;;7.85;;
24337;SDS011;12457;50.832;4.346;2022-10-30T02:43:06;21.10;;;6.90;;
24337;SDS011;12457;50.832;4.346;2022-10-30T02:45:32;20.55;;;6.38;;
24337;SDS011;12457;50.832;4.346;2022-10-30T02:47:58;20.73;;;6.47;;
24337;SDS011;12457;50.832;4.346;2022-10-30T02:50:24;18.88;;;7.00;;
24337;SDS011;12457;50.832;4.346;2022-10-30T02:52:50;21.08;;;7.60;;
24337;SDS011;12457;50.832;4.346;2022-10-30T02:55:16;32.38;;;8.88;;
24337;SDS011;12457;50.832;4.346;2022-10-30T02:57:41;18.38;;;8.02;;
24337;SDS011;12457;50.832;4.346;2022-10-30T03:00:07;26.20;;;8.52;;
24337;SDS011;12457;50.832;4.346;2022-10-30T03:02:34;25.30;;;7.63;;
24337;SDS011;12457;50.832;4.346;2022-10-30T03:04:59;21.38;;;7.75;;
24337;SDS011;12457;50.832;4.346;2022-10-30T03:07:25;20.15;;;6.88;;
24337;SDS011;12457;50.832;4.346;2022-10-30T03:09:50;19.75;;;6.88;;
24337;SDS011;12457;50.832;4.346;2022-10-30T03:12:18;24.73;;;8.55;;
24337;SDS011;12457;50.832;4.346;2022-10-30T03:14:44;25.17;;;8.43;;
24337;SDS011;12457;50.832;4.346;2022-10-30T03:17:09;20.05;;;7.90;;
24337;SDS011;12457;50.832;4.346;2022-10-30T03:19:35;24.83;;;8.00;;
24337;SDS011;12457;50.832;4.346;2022-10-30T03:22:01;21.63;;;8.02;;
24337;SDS011;12457;50.832;4.346;2022-10-30T03:24:26;17.75;;;7.93;;
24337;SDS011;12457;50.832;4.346;2022-10-30T03:26:52;30.50;;;9.05;;
24337;SDS011;12457;50.832;4.346;2022-10-30T03:29:18;22.17;;;8.48;;
24337;SDS011;12457;50.832;4.346;2022-10-30T03:31:43;22.40;;;8.40;;
24337;SDS011;12457;50.832;4.346;2022-10-30T03:34:09;19.23;;;8.75;;
24337;SDS011;12457;50.832;4.346;2022-10-30T03:36:34;18.20;;;8.32;;
24337;SDS011;12457;50.832;4.346;2022-10-30T03:39:00;24.48;;;8.77;;
24337;SDS011;12457;50.832;4.346;2022-10-30T03:41:26;24.58;;;8.05;;
24337;SDS011;12457;50.832;4.346;2022-10-30T03:43:51;17.20;;;8.48;;
24337;SDS011;12457;50.832;4.346;2022-10-30T03:46:17;21.42;;;8.35;;
24337;SDS011;12457;50.832;4.346;2022-10-30T03:48:43;23.27;;;8.82;;
24337;SDS011;12457;50.832;4.346;2022-10-30T03:51:12;27.40;;;7.97;;
24337;SDS011;12457;50.832;4.346;2022-10-30T03:53:38;24.13;;;8.45;;
24337;SDS011;12457;50.832;4.346;2022-10-30T03:56:03;21.83;;;7.65;;
24337;SDS011;12457;50.832;4.346;2022-10-30T03:58:29;26.90;;;6.85;;
24337;SDS011;12457;50.832;4.346;2022-10-30T04:01:01;15.80;;;6.53;;
24337;SDS011;12457;50.832;4.346;2022-10-30T04:03:28;15.35;;;6.50;;
24337;SDS011;12457;50.832;4.346;2022-10-30T04:05:54;18.42;;;6.53;;
24337;SDS011;12457;50.832;4.346;2022-10-30T04:08:20;22.95;;;6.90;;
24337;SDS011;12457;50.832;4.346;2022-10-30T04:10:45;23.08;;;6.50;;
24337;SDS011;12457;50.832;4.346;2022-10-30T04:13:13;27.55;;;6.65;;
24337;SDS011;12457;50.832;4.346;2022-10-30T04:15:40;13.90;;;5.95;;
24337;SDS011;12457;50.832;4.346;2022-10-30T04:18:08;19.02;;;6.10;;
24337;SDS011;12457;50.832;4.346;2022-10-30T04:20:35;17.58;;;6.43;;
24337;SDS011;12457;50.832;4.346;2022-10-30T04:23:02;13.40;;;5.78;;
24337;SDS011;12457;50.832;4.346;2022-10-30T04:25:30;19.80;;;5.95;;
24337;SDS011;12457;50.832;4.346;2022-10-30T04:27:57;15.75;;;6.45;;
24337;SDS011;12457;50.832;4.346;2022-10-30T04:30:23;20.52;;;7.65;;
24337;SDS011;12457;50.832;4.346;2022-10-30T04:32:52;17.20;;;6.53;;
24337;SDS011;12457;50.832;4.346;2022-10-30T04:35:19;22.58;;;6.88;;
24337;SDS011;12457;50.832;4.346;2022-10-30T04:37:51;20.08;;;6.30;;
24337;SDS011;12457;50.832;4.346;2022-10-30T04:40:20;20.20;;;7.38;;
24337;SDS011;12457;50.832;4.346;2022-10-30T04:42:47;22.20;;;6.85;;
24337;SDS011;12457;50.832;4.346;2022-10-30T04:45:12;19.55;;;6.57;;
24337;SDS011;12457;50.832;4.346;2022-10-30T04:47:38;17.00;;;6.60;;
24337;SDS011;12457;50.832;4.346;2022-10-30T04:50:04;22.27;;;6.95;;
24337;SDS011;12457;50.832;4.346;2022-10-30T04:52:30;19.25;;;6.88;;
24337;SDS011;12457;50.832;4.346;2022-10-30T04:54:56;24.55;;;7.53;;
24337;SDS011;12457;50.832;4.346;2022-10-30T04:57:21;25.92;;;6.53;;
24337;SDS011;12457;50.832;4.346;2022-10-30T04:59:47;19.33;;;6.85;;
24337;SDS011;12457;50.832;4.346;2022-10-30T05:02:12;19.75;;;7.60;;
24337;SDS011;12457;50.832;4.346;2022-10-30T05:04:38;16.48;;;6.45;;
24337;SDS011;12457;50.832;4.346;2022-10-30T05:07:04;22.40;;;7.03;;
24337;SDS011;12457;50.832;4.346;2022-10-30T05:09:31;19.02;;;6.65;;
24337;SDS011;12457;50.832;4.346;2022-10-30T05:11:56;22.85;;;6.93;;
24337;SDS011;12457;50.832;4.346;2022-10-30T05:14:22;28.15;;;7.82;;
24337;SDS011;12457;50.832;4.346;2022-10-30T05:16:48;18.58;;;6.88;;
24337;SDS011;12457;50.832;4.346;2022-10-30T05:19:13;19.15;;;6.47;;
24337;SDS011;12457;50.832;4.346;2022-10-30T05:21:39;18.55;;;6.97;;
24337;SDS011;12457;50.832;4.346;2022-10-30T05:24:06;21.42;;;6.72;;
24337;SDS011;12457;50.832;4.346;2022-10-30T05:26:32;19.27;;;6.90;;
24337;SDS011;12457;50.832;4.346;2022-10-30T05:28:57;26.27;;;7.40;;
24337;SDS011;12457;50.832;4.346;2022-10-30T05:31:23;19.90;;;8.35;;
24337;SDS011;12457;50.832;4.346;2022-10-30T05:33:48;23.50;;;9.05;;
24337;SDS011;12457;50.832;4.346;2022-10-30T05:36:14;17.17;;;8.32;;
24337;SDS011;12457;50.832;4.346;2022-10-30T05:38:40;27.05;;;8.10;;
24337;SDS011;12457;50.832;4.346;2022-10-30T05:41:05;22.35;;;8.32;;
24337;SDS011;12457;50.832;4.346;2022-10-30T05:43:31;21.52;;;7.93;;
24337;SDS011;12457;50.832;4.346;2022-10-30T05:45:56;21.30;;;8.05;;
24337;SDS011;12457;50.832;4.346;2022-10-30T05:48:23;19.30;;;8.15;;
24337;SDS011;12457;50.832;4.346;2022-10-30T05:50:49;19.23;;;8.20;;
24337;SDS011;12457;50.832;4.346;2022-10-30T05:53:15;20.75;;;8.88;;
24337;SDS011;12457;50.832;4.346;2022-10-30T05:55:40;27.95;;;9.15;;
24337;SDS011;12457;50.832;4.346;2022-10-30T05:58:06;26.27;;;9.13;;
24337;SDS011;12457;50.832;4.346;2022-10-30T06:00:34;24.63;;;8.98;;
24337;SDS011;12457;50.832;4.346;2022-10-30T06:03:00;25.73;;;9.50;;
24337;SDS011;12457;50.832;4.346;2022-10-30T06:05:31;23.23;;;9.45;;
24337;SDS011;12457;50.832;4.346;2022-10-30T06:07:59;27.33;;;10.18;;
24337;SDS011;12457;50.832;4.346;2022-10-30T06:10:25;26.02;;;10.05;;
24337;SDS011;12457;50.832;4.346;2022-10-30T06:12:52;24.42;;;10.15;;
24337;SDS011;12457;50.832;4.346;2022-10-30T06:15:25;33.00;;;11.68;;
24337;SDS011;12457;50.832;4.346;2022-10-30T06:17:51;33.55;;;10.48;;
24337;SDS011;12457;50.832;4.346;2022-10-30T06:20:18;27.77;;;10.85;;
24337;SDS011;12457;50.832;4.346;2022-10-30T06:22:52;28.17;;;10.38;;
24337;SDS011;12457;50.832;4.346;2022-10-30T06:25:19;21.38;;;9.90;;
24337;SDS011;12457;50.832;4.346;2022-10-30T06:27:44;23.52;;;9.82;;
24337;SDS011;12457;50.832;4.346;2022-10-30T06:30:10;23.00;;;9.75;;
24337;SDS011;12457;50.832;4.346;2022-10-30T06:32:36;26.15;;;9.05;;
24337;SDS011;12457;50.832;4.346;2022-10-30T06:35:01;24.83;;;9.30;;
24337;SDS011;12457;50.832;4.346;2022-10-30T06:37:27;31.92;;;10.15;;
24337;SDS011;12457;50.832;4.346;2022-10-30T06:39:53;27.35;;;9.70;;
24337;SDS011;12457;50.832;4.346;2022-10-30T06:42:18;23.25;;;9.73;;
24337;SDS011;12457;50.832;4.346;2022-10-30T06:44:44;28.23;;;9.70;;
24337;SDS011;12457;50.832;4.346;2022-10-30T06:47:09;30.88;;;10.23;;
24337;SDS011;12457;50.832;4.346;2022-10-30T06:49:35;27.33;;;9.90;;
24337;SDS011;12457;50.832;4.346;2022-10-30T06:52:00;30.83;;;9.75;;
24337;SDS011;12457;50.832;4.346;2022-10-30T06:54:26;27.55;;;10.68;;
24337;SDS011;12457;50.832;4.346;2022-10-30T06:56:52;25.17;;;9.77;;
24337;SDS011;12457;50.832;4.346;2022-10-30T06:59:17;26.30;;;10.90;;
24337;SDS011;12457;50.832;4.346;2022-10-30T07:01:43;31.40;;;11.93;;
24337;SDS011;12457;50.832;4.346;2022-10-30T07:04:08;28.38;;;10.65;;
24337;SDS011;12457;50.832;4.346;2022-10-30T07:06:34;26.80;;;10.43;;
24337;SDS011;12457;50.832;4.346;2022-10-30T07:09:00;23.80;;;10.15;;
24337;SDS011;12457;50.832;4.346;2022-10-30T07:11:25;23.40;;;9.02;;
24337;SDS011;12457;50.832;4.346;2022-10-30T07:13:51;30.92;;;9.15;;
24337;SDS011;12457;50.832;4.346;2022-10-30T07:16:17;28.48;;;10.77;;
24337;SDS011;12457;50.832;4.346;2022-10-30T07:18:43;32.05;;;11.68;;
24337;SDS011;12457;50.832;4.346;2022-10-30T07:21:08;32.88;;;14.40;;
24337;SDS011;12457;50.832;4.346;2022-10-30T07:23:34;30.48;;;12.50;;
24337;SDS011;12457;50.832;4.346;2022-10-30T07:25:59;24.23;;;11.88;;
24337;SDS011;12457;50.832;4.346;2022-10-30T07:28:25;24.42;;;10.15;;
24337;SDS011;12457;50.832;4.346;2022-10-30T07:30:50;29.63;;;11.10;;
24337;SDS011;12457;50.832;4.346;2022-10-30T07:33:16;27.98;;;10.45;;
24337;SDS011;12457;50.832;4.346;2022-10-30T07:35:42;26.48;;;9.40;;
24337;SDS011;12457;50.832;4.346;2022-10-30T07:38:11;23.23;;;9.82;;
24337;SDS011;12457;50.832;4.346;2022-10-30T07:40:37;25.98;;;9.63;;
24337;SDS011;12457;50.832;4.346;2022-10-30T07:43:03;35.50;;;10.63;;
24337;SDS011;12457;50.832;4.346;2022-10-30T07:45:29;24.33;;;10.13;;
24337;SDS011;12457;50.832;4.346;2022-10-30T07:47:55;30.90;;;10.68;;
24337;SDS011;12457;50.832;4.346;2022-10-30T07:50:21;41.78;;;13.60;;
24337;SDS011;12457;50.832;4.346;2022-10-30T07:52:47;30.52;;;12.20;;
24337;SDS011;12457;50.832;4.346;2022-10-30T07:55:13;35.50;;;12.35;;
24337;SDS011;12457;50.832;4.346;2022-10-30T07:57:39;25.25;;;10.68;;
24337;SDS011;12457;50.832;4.346;2022-10-30T08:00:07;31.52;;;10.30;;
24337;SDS011;12457;50.832;4.346;2022-10-30T08:02:35;23.85;;;10.52;;
24337;SDS011;12457;50.832;4.346;2022-10-30T08:05:01;25.85;;;10.75;;
24337;SDS011;12457;50.832;4.346;2022-10-30T08:07:32;27.02;;;10.55;;
24337;SDS011;12457;50.832;4.346;2022-10-30T08:09:59;24.98;;;8.80;;
24337;SDS011;12457;50.832;4.346;2022-10-30T08:12:25;31.02;;;11.13;;
24337;SDS011;12457;50.832;4.346;2022-10-30T08:14:52;28.20;;;9.85;;
24337;SDS011;12457;50.832;4.346;2022-10-30T08:17:17;25.65;;;10.13;;
24337;SDS011;12457;50.832;4.346;2022-10-30T08:19:43;25.60;;;9.05;;
24337;SDS011;12457;50.832;4.346;2022-10-30T08:22:09;24.77;;;8.88;;
24337;SDS011;12457;50.832;4.346;2022-10-30T08:24:36;25.42;;;9.45;;
24337;SDS011;12457;50.832;4.346;2022-10-30T08:27:01;21.30;;;8.82;;
24337;SDS011;12457;50.832;4.346;2022-10-30T08:29:28;23.10;;;9.13;;
24337;SDS011;12457;50.832;4.346;2022-10-30T08:31:53;23.00;;;9.45;;
24337;SDS011;12457;50.832;4.346;2022-10-30T08:34:19;26.33;;;9.32;;
24337;SDS011;12457;50.832;4.346;2022-10-30T08:36:49;21.10;;;9.30;;
24337;SDS011;12457;50.832;4.346;2022-10-30T08:39:16;31.40;;;9.90;;
24337;SDS011;12457;50.832;4.346;2022-10-30T08:41:42;21.25;;;9.07;;
24337;SDS011;12457;50.832;4.346;2022-10-30T08:44:08;28.77;;;9.48;;
24337;SDS011;12457;50.832;4.346;2022-10-30T08:46:33;32.53;;;9.82;;
24337;SDS011;12457;50.832;4.346;2022-10-30T08:48:59;28.73;;;9.85;;
24337;SDS011;12457;50.832;4.346;2022-10-30T08:51:25;27.20;;;10.00;;
24337;SDS011;12457;50.832;4.346;2022-10-30T08:53:51;28.42;;;12.45;;
24337;SDS011;12457;50.832;4.346;2022-10-30T08:56:17;27.67;;;9.90;;
24337;SDS011;12457;50.832;4.346;2022-10-30T08:58:43;20.67;;;9.02;;
24337;SDS011;12457;50.832;4.346;2022-10-30T09:01:08;30.05;;;9.05;;
24337;SDS011;12457;50.832;4.346;2022-10-30T09:03:34;23.38;;;9.25;;
24337;SDS011;12457;50.832;4.346;2022-10-30T09:06:00;24.52;;;9.57;;
24337;SDS011;12457;50.832;4.346;2022-10-30T09:08:27;27.83;;;10.02;;
24337;SDS011;12457;50.832;4.346;2022-10-30T09:10:56;27.75;;;10.93;;
24337;SDS011;12457;50.832;4.346;2022-10-30T09:13:23;25.70;;;11.95;;
24337;SDS011;12457;50.832;4.346;2022-10-30T09:15:50;27.40;;;11.30;;
24337;SDS011;12457;50.832;4.346;2022-10-30T09:18:16;26.15;;;10.57;;
24337;SDS011;12457;50.832;4.346;2022-10-30T09:20:43;30.55;;;10.30;;
24337;SDS011;12457;50.832;4.346;2022-10-30T09:23:12;26.13;;;8.93;;
24337;SDS011;12457;50.832;4.346;2022-10-30T09:25:38;28.80;;;8.95;;
24337;SDS011;12457;50.832;4.346;2022-10-30T09:28:03;25.92;;;8.60;;
24337;SDS011;12457;50.832;4.346;2022-10-30T09:30:29;22.23;;;9.15;;
24337;SDS011;12457;50.832;4.346;2022-10-30T09:32:55;36.45;;;11.95;;
24337;SDS011;12457;50.832;4.346;2022-10-30T09:35:22;30.48;;;9.85;;
24337;SDS011;12457;50.832;4.346;2022-10-30T09:37:48;26.75;;;9.85;;
24337;SDS011;12457;50.832;4.346;2022-10-30T09:40:20;27.75;;;8.10;;
24337;SDS011;12457;50.832;4.346;2022-10-30T09:42:53;20.05;;;8.38;;
24337;SDS011;12457;50.832;4.346;2022-10-30T09:45:36;19.40;;;8.40;;
24337;SDS011;12457;50.832;4.346;2022-10-30T09:48:15;34.05;;;11.65;;
24337;SDS011;12457;50.832;4.346;2022-10-30T09:59:26;23.88;;;7.63;;
24337;SDS011;12457;50.832;4.346;2022-10-30T10:02:24;26.05;;;8.50;;
24337;SDS011;12457;50.832;4.346;2022-10-30T10:04:53;22.85;;;8.88;;
24337;SDS011;12457;50.832;4.346;2022-10-30T10:07:31;23.30;;;8.48;;
24337;SDS011;12457;50.832;4.346;2022-10-30T10:10:04;22.40;;;9.00;;
24337;SDS011;12457;50.832;4.346;2022-10-30T10:12:38;32.40;;;7.75;;
24337;SDS011;12457;50.832;4.346;2022-10-30T10:15:13;24.60;;;8.70;;
24337;SDS011;12457;50.832;4.346;2022-10-30T10:17:55;23.63;;;10.05;;
24337;SDS011;12457;50.832;4.346;2022-10-30T10:22:55;24.63;;;8.43;;
24337;SDS011;12457;50.832;4.346;2022-10-30T10:25:23;28.20;;;8.65;;
24337;SDS011;12457;50.832;4.346;2022-10-30T10:28:06;26.77;;;11.52;;
24337;SDS011;12457;50.832;4.346;2022-10-30T10:36:50;32.47;;;9.57;;
24337;SDS011;12457;50.832;4.346;2022-10-30T10:51:01;24.02;;;8.95;;
24337;SDS011;12457;50.832;4.346;2022-10-30T10:53:44;31.55;;;8.55;;
24337;SDS011;12457;50.832;4.346;2022-10-30T10:56:14;28.25;;;8.70;;
24337;SDS011;12457;50.832;4.346;2022-10-30T11:01:18;28.77;;;9.13;;
24337;SDS011;12457;50.832;4.346;2022-10-30T11:03:55;22.92;;;8.80;;
24337;SDS011;12457;50.832;4.346;2022-10-30T11:06:27;26.77;;;8.90;;
24337;SDS011;12457;50.832;4.346;2022-10-30T11:08:59;25.88;;;9.45;;
24337;SDS011;12457;50.832;4.346;2022-10-30T11:11:45;26.33;;;8.82;;
24337;SDS011;12457;50.832;4.346;2022-10-30T11:14:16;36.70;;;8.85;;
24337;SDS011;12457;50.832;4.346;2022-10-30T11:19:34;25.45;;;9.10;;
24337;SDS011;12457;50.832;4.346;2022-10-30T11:22:00;19.40;;;9.00;;
24337;SDS011;12457;50.832;4.346;2022-10-30T11:24:29;17.50;;;7.93;;
24337;SDS011;12457;50.832;4.346;2022-10-30T11:27:15;21.65;;;8.48;;
24337;SDS011;12457;50.832;4.346;2022-10-30T11:30:00;30.48;;;7.50;;
24337;SDS011;12457;50.832;4.346;2022-10-30T11:32:29;20.17;;;7.63;;
24337;SDS011;12457;50.832;4.346;2022-10-30T11:35:07;22.13;;;7.18;;
24337;SDS011;12457;50.832;4.346;2022-10-30T11:37:36;26.48;;;7.57;;
24337;SDS011;12457;50.832;4.346;2022-10-30T11:42:35;29.98;;;9.77;;
24337;SDS011;12457;50.832;4.346;2022-10-30T11:45:02;24.92;;;9.55;;
24337;SDS011;12457;50.832;4.346;2022-10-30T11:47:36;26.10;;;8.05;;
24337;SDS011;12457;50.832;4.346;2022-10-30T11:50:12;31.50;;;8.02;;
24337;SDS011;12457;50.832;4.346;2022-10-30T11:52:42;21.88;;;7.47;;
24337;SDS011;12457;50.832;4.346;2022-10-30T11:55:19;32.33;;;13.52;;
24337;SDS011;12457;50.832;4.346;2022-10-30T11:57:51;33.25;;;10.02;;
24337;SDS011;12457;50.832;4.346;2022-10-30T12:00:22;30.23;;;11.95;;
24337;SDS011;12457;50.832;4.346;2022-10-30T12:02:50;17.83;;;7.40;;
24337;SDS011;12457;50.832;4.346;2022-10-30T12:08:10;21.92;;;7.72;;
24337;SDS011;12457;50.832;4.346;2022-10-30T12:13:11;36.22;;;17.17;;
24337;SDS011;12457;50.832;4.346;2022-10-30T12:15:42;30.27;;;10.73;;
24337;SDS011;12457;50.832;4.346;2022-10-30T12:18:28;23.35;;;12.65;;
24337;SDS011;12457;50.832;4.346;2022-10-30T12:20:55;31.58;;;15.25;;
24337;SDS011;12457;50.832;4.346;2022-10-30T12:23:25;43.05;;;19.88;;
24337;SDS011;12457;50.832;4.346;2022-10-30T12:25:53;23.23;;;11.32;;
24337;SDS011;12457;50.832;4.346;2022-10-30T12:28:23;20.38;;;7.53;;
24337;SDS011;12457;50.832;4.346;2022-10-30T12:30:56;30.70;;;9.90;;
24337;SDS011;12457;50.832;4.346;2022-10-30T12:33:41;20.10;;;8.00;;
24337;SDS011;12457;50.832;4.346;2022-10-30T12:36:18;21.35;;;10.05;;
24337;SDS011;12457;50.832;4.346;2022-10-30T12:38:54;27.35;;;11.63;;
24337;SDS011;12457;50.832;4.346;2022-10-30T12:41:30;27.90;;;11.65;;
24337;SDS011;12457;50.832;4.346;2022-10-30T12:44:24;23.15;;;10.13;;
24337;SDS011;12457;50.832;4.346;2022-10-30T12:47:01;28.65;;;10.73;;
24337;SDS011;12457;50.832;4.346;2022-10-30T12:49:40;26.25;;;9.32;;
24337;SDS011;12457;50.832;4.346;2022-10-30T12:54:59;25.93;;;10.70;;
24337;SDS011;12457;50.832;4.346;2022-10-30T12:57:43;22.48;;;8.52;;
24337;SDS011;12457;50.832;4.346;2022-10-30T13:00:18;16.67;;;7.43;;
24337;SDS011;12457;50.832;4.346;2022-10-30T13:02:47;29.45;;;9.23;;
24337;SDS011;12457;50.832;4.346;2022-10-30T13:05:31;25.55;;;9.10;;
24337;SDS011;12457;50.832;4.346;2022-10-30T13:11:01;40.45;;;21.25;;
24337;SDS011;12457;50.832;4.346;2022-10-30T13:13:34;48.67;;;20.77;;
24337;SDS011;12457;50.832;4.346;2022-10-30T13:16:05;34.47;;;17.98;;
24337;SDS011;12457;50.832;4.346;2022-10-30T13:21:12;21.42;;;10.70;;
24337;SDS011;12457;50.832;4.346;2022-10-30T13:27:01;28.35;;;10.05;;
24337;SDS011;12457;50.832;4.346;2022-10-30T13:29:34;25.10;;;9.07;;
24337;SDS011;12457;50.832;4.346;2022-10-30T13:32:25;20.15;;;6.68;;
24337;SDS011;12457;50.832;4.346;2022-10-30T13:41:03;14.57;;;5.22;;
24337;SDS011;12457;50.832;4.346;2022-10-30T13:56:43;16.92;;;5.38;;
24337;SDS011;12457;50.832;4.346;2022-10-30T14:04:37;20.73;;;6.40;;
24337;SDS011;12457;50.832;4.346;2022-10-30T14:09:53;27.15;;;6.85;;
24337;SDS011;12457;50.832;4.346;2022-10-30T14:20:39;17.30;;;6.22;;
24337;SDS011;12457;50.832;4.346;2022-10-30T14:23:07;19.50;;;5.75;;
24337;SDS011;12457;50.832;4.346;2022-10-30T14:25:38;13.70;;;6.00;;
24337;SDS011;12457;50.832;4.346;2022-10-30T14:28:04;17.17;;;6.47;;
24337;SDS011;12457;50.832;4.346;2022-10-30T14:30:37;19.10;;;6.68;;
24337;SDS011;12457;50.832;4.346;2022-10-30T14:33:17;21.17;;;5.80;;
24337;SDS011;12457;50.832;4.346;2022-10-30T14:41:55;22.42;;;7.65;;
24337;SDS011;12457;50.832;4.346;2022-10-30T14:44:36;21.70;;;8.13;;
24337;SDS011;12457;50.832;4.346;2022-10-30T14:52:39;20.83;;;8.43;;
24337;SDS011;12457;50.832;4.346;2022-10-30T15:03:48;24.75;;;9.60;;
24337;SDS011;12457;50.832;4.346;2022-10-30T15:06:28;23.60;;;9.25;;
24337;SDS011;12457;50.832;4.346;2022-10-30T15:12:11;24.07;;;8.87;;
24337;SDS011;12457;50.832;4.346;2022-10-30T15:15:00;27.20;;;9.40;;
24337;SDS011;12457;50.832;4.346;2022-10-30T15:17:32;25.20;;;9.75;;
24337;SDS011;12457;50.832;4.346;2022-10-30T15:20:02;21.88;;;10.18;;
24337;SDS011;12457;50.832;4.346;2022-10-30T15:22:32;31.95;;;9.70;;
24337;SDS011;12457;50.832;4.346;2022-10-30T15:24:59;33.92;;;10.20;;
24337;SDS011;12457;50.832;4.346;2022-10-30T15:27:27;27.58;;;9.55;;
24337;SDS011;12457;50.832;4.346;2022-10-30T15:29:58;26.40;;;10.23;;
24337;SDS011;12457;50.832;4.346;2022-10-30T15:32:28;39.70;;;10.35;;
24337;SDS011;12457;50.832;4.346;2022-10-30T15:34:57;29.50;;;10.45;;
24337;SDS011;12457;50.832;4.346;2022-10-30T15:37:28;22.55;;;9.27;;
24337;SDS011;12457;50.832;4.346;2022-10-30T15:42:38;22.25;;;10.10;;
24337;SDS011;12457;50.832;4.346;2022-10-30T15:45:04;21.75;;;10.23;;
24337;SDS011;12457;50.832;4.346;2022-10-30T15:47:32;26.35;;;11.38;;
24337;SDS011;12457;50.832;4.346;2022-10-30T15:49:58;27.83;;;11.00;;
24337;SDS011;12457;50.832;4.346;2022-10-30T15:52:27;40.55;;;13.18;;
24337;SDS011;12457;50.832;4.346;2022-10-30T15:55:05;28.95;;;11.38;;
24337;SDS011;12457;50.832;4.346;2022-10-30T15:57:39;27.90;;;12.52;;
24337;SDS011;12457;50.832;4.346;2022-10-30T16:00:21;32.67;;;12.65;;
24337;SDS011;12457;50.832;4.346;2022-10-30T16:05:36;28.83;;;10.95;;
24337;SDS011;12457;50.832;4.346;2022-10-30T16:08:02;26.17;;;10.10;;
24337;SDS011;12457;50.832;4.346;2022-10-30T16:10:34;26.83;;;9.63;;
24337;SDS011;12457;50.832;4.346;2022-10-30T16:13:01;23.38;;;8.88;;
24337;SDS011;12457;50.832;4.346;2022-10-30T16:15:28;24.27;;;7.97;;
24337;SDS011;12457;50.832;4.346;2022-10-30T16:18:06;20.73;;;8.18;;
24337;SDS011;12457;50.832;4.346;2022-10-30T16:20:46;23.00;;;9.27;;
24337;SDS011;12457;50.832;4.346;2022-10-30T16:23:15;19.55;;;8.60;;
24337;SDS011;12457;50.832;4.346;2022-10-30T16:25:42;20.85;;;8.13;;
24337;SDS011;12457;50.832;4.346;2022-10-30T16:28:21;21.98;;;9.13;;
24337;SDS011;12457;50.832;4.346;2022-10-30T16:30:55;18.77;;;8.32;;
24337;SDS011;12457;50.832;4.346;2022-10-30T16:33:34;18.75;;;7.55;;
24337;SDS011;12457;50.832;4.346;2022-10-30T16:36:03;15.65;;;7.97;;
24337;SDS011;12457;50.832;4.346;2022-10-30T16:38:33;21.67;;;8.77;;
24337;SDS011;12457;50.832;4.346;2022-10-30T16:41:03;32.95;;;11.02;;
24337;SDS011;12457;50.832;4.346;2022-10-30T16:43:30;28.42;;;9.85;;
24337;SDS011;12457;50.832;4.346;2022-10-30T16:48:38;31.83;;;10.52;;
24337;SDS011;12457;50.832;4.346;2022-10-30T16:51:11;21.40;;;10.20;;
24337;SDS011;12457;50.832;4.346;2022-10-30T16:53:39;24.25;;;9.45;;
24337;SDS011;12457;50.832;4.346;2022-10-30T16:56:13;22.88;;;9.02;;
24337;SDS011;12457;50.832;4.346;2022-10-30T16:58:45;19.17;;;8.52;;
24337;SDS011;12457;50.832;4.346;2022-10-30T17:01:11;16.33;;;8.80;;
24337;SDS011;12457;50.832;4.346;2022-10-30T17:03:37;16.33;;;7.22;;
24337;SDS011;12457;50.832;4.346;2022-10-30T17:06:27;31.90;;;14.35;;
24337;SDS011;12457;50.832;4.346;2022-10-30T17:09:09;19.85;;;7.53;;
24337;SDS011;12457;50.832;4.346;2022-10-30T17:15:09;24.60;;;8.50;;
24337;SDS011;12457;50.832;4.346;2022-10-30T17:17:29;19.80;;;9.27;;